• Join FlightAware (Why Join?)
  • Login
  • US Flag 
02:41AM EDT


 

Airport Tracker/Info


-or-


 

Live Flight TrackerFlight Track Log ✈ UAL4236 ✈ 21-Apr-2013 ✈ KELP - KIAH

Flight Track Log - Related Links

Times and Time Zones

All times are in EDT time to prevent confusion due to time zone crossing. See the UAL4236 flight status page for this flight to view local times or setup timezone preferences in your user account.

Time Position Orientation Groundspeed Altitude Reporting Facility
EDT Latitude Longitude Course Direction KTS MPH feet Rate Location/Type
12:15PM 31.8433 -106.4175 336° Northwest 210 242 6,500  Level Albuquerque Center
12:16PM 31.8511 -106.3922 70° East 217 250 7,400 2,040 Climbing Albuquerque Center
12:16PM 31.8450 -106.3447 99° East 250 288 8,600 1,800 Climbing Albuquerque Center
12:17PM 31.7601 -105.9882 96° East  Level Estimated
12:17PM 31.8419 -106.3147 97° East 241 277 9,300  Level Albuquerque Center
12:18PM 31.7418 -105.8593 99° East  Level FlightAware Approximate
12:18PM 31.8306 -106.2239 98° East 280 322 10,600  Level Albuquerque Center
12:19PM 31.7222 -105.7221 100° East  Level FlightAware Approximate
12:19PM 31.8142 -106.0950 98° East 331 381 11,900  Level Albuquerque Center
12:20PM 31.7085 -105.5926 96° East  Level FlightAware Approximate
12:20PM 31.7981 -105.9739 99° East 373 429 13,000  Level Albuquerque Center
12:21PM 31.7814 -105.8472 99° East 388 447 14,300 1,200 Climbing Albuquerque Center
12:22PM 31.7644 -105.7186 99° East 398 458 15,600 1,140 Climbing Albuquerque Center
12:23PM 31.7481 -105.5869 98° East 406 467 16,700 1,020 Climbing Albuquerque Center
12:24PM 31.7306 -105.4517 99° East 416 479 17,800 900 Climbing Albuquerque Center
12:25PM 31.7117 -105.3147 99° East 423 487 18,600 960 Climbing Albuquerque Center
12:26PM 31.6900 -105.1467 99° East 431 496 19,800 1,020 Climbing Albuquerque Center
12:27PM 31.6714 -105.0033 99° East 439 505 20,800 960 Climbing Albuquerque Center
12:28PM 31.6506 -104.8572 99° East 448 516 21,800 960 Climbing Albuquerque Center
12:29PM 31.6314 -104.7092 99° East 455 524 22,900 1,080 Climbing Albuquerque Center
12:30PM 31.6108 -104.5619 99° East 457 526 24,100 1,140 Climbing Albuquerque Center
12:31PM 31.5903 -104.4158 99° East 455 524 25,300 1,080 Climbing Albuquerque Center
12:32PM 31.5708 -104.2706 99° East 452 520 26,400 1,200 Climbing Albuquerque Center
12:33PM 31.5458 -104.0983 100° East 448 516 27,800 1,140 Climbing Albuquerque Center
12:34PM 31.5258 -103.9544 99° East 446 513 28,800 960 Climbing Albuquerque Center
12:35PM 31.5050 -103.8094 100° East 450 518 29,800 960 Climbing Albuquerque Center
12:36PM 31.4806 -103.6503 100° East 452 520 30,800 960 Climbing Albuquerque Center
12:37PM 31.4614 -103.5019 99° East 459 528 31,800 960 Climbing Albuquerque Center
12:38PM 31.4419 -103.3539 99° East 462 532 32,800 960 Climbing Albuquerque Center
12:40PM 31.4225 -103.2028 99° East 467 537 33,800 960 Climbing Albuquerque Center
12:41PM 31.4039 -103.0519 98° East 469 540 34,800 540 Climbing Albuquerque Center
12:42PM 31.3806 -102.8683 98° East 474 545 35,000 60 Climbing Albuquerque Center
12:43PM 31.3608 -102.7097 98° East 488 562 35,000  Level Albuquerque Center
12:44PM 31.3392 -102.5508 99° East 494 568 35,000  Level Albuquerque Center
12:45PM 31.3206 -102.4019 98° East 501 577 35,000  Level Albuquerque Center
12:46PM 31.2958 -102.2144 99° East 497 572 35,000  Level Albuquerque Center
12:47PM 31.2753 -102.0569 99° East 494 568 35,000  Level Albuquerque Center
12:48PM 31.2542 -101.8981 99° East 496 571 35,000  Level Albuquerque Center
12:49PM 31.2325 -101.7367 99° East 499 574 35,000  Level Albuquerque Center
12:50PM 31.2147 -101.6092 99° East 501 577 35,000  Level Houston Center
12:51PM 31.1881 -101.4153 99° East 504 580 35,000  Level Houston Center
12:52PM 31.1689 -101.2733 99° East 506 582 35,000  Level Houston Center
12:53PM 31.1453 -101.1097 100° East 510 587 35,000  Level Houston Center
12:54PM 31.1189 -100.9122 99° East 513 590 35,000  Level Houston Center
12:55PM 31.0942 -100.7486 100° East 511 588 35,000  Level Houston Center
12:56PM 31.0711 -100.5847 99° East 511 588 35,000  Level Houston Center
12:57PM 31.0464 -100.4206 100° East 512 589 35,000  Level Houston Center
12:58PM 31.0231 -100.2564 99° East 513 590 35,000  Level Houston Center
12:59PM 30.9983 -100.0922 100° East 512 589 35,000  Level Houston Center
01:00PM 30.9739 -99.9281 100° East 513 590 35,000  Level Houston Center
01:01PM 30.9436 -99.7317 100° East 512 589 35,000  Level Houston Center
01:02PM 30.9186 -99.5661 100° East 517 595 35,000 -60 Level Houston Center
01:03PM 30.8925 -99.4000 100° East 520 598 34,900  Descending Houston Center
01:04PM 30.8672 -99.2356 100° East 517 595 35,000  Climbing Houston Center
01:05PM 30.8394 -99.0636 101° East 515 593 35,000  Level Houston Center
01:06PM 30.8133 -98.9022 101° East 505 581 35,000  Level Houston Center
01:07PM 30.7950 -98.7422 98° East 497 572 35,000 -120 Level Houston Center
01:08PM 30.7997 -98.5811 88° East 495 570 34,800 -900 Descending Houston Center
01:09PM 30.8033 -98.3944 89° East 492 566 33,200 -1,680 Descending Houston Center
01:10PM 30.8072 -98.2369 88° East 485 558 31,400 -1,800 Descending Houston Center
01:11PM 30.8097 -98.0817 89° East 477 549 29,500 -1,200 Descending Houston Center
01:12PM 30.8119 -97.9231 89° East 485 558 29,000 -300 Descending Houston Center
01:13PM 30.8142 -97.7628 89° East 492 566 29,000  Level Houston Center
01:14PM 30.8150 -97.6033 90° East 491 565 29,000  Level Houston Center
01:16PM 30.8181 -97.4150 89° East 498 573 29,000  Level Houston Center
01:17PM 30.8189 -97.2547 90° East 503 579 29,000  Level Houston Center
01:18PM 30.8222 -97.0897 89° East 515 593 29,000  Level Houston Center
01:19PM 30.8233 -96.9217 90° East 519 597 29,000 -660 Level Houston Center
01:20PM 30.8242 -96.7522 90° East 521 600 27,700 -2,520 Descending Houston Center
01:21PM 30.8250 -96.5553 90° East 520 598 23,800 -3,300 Descending Houston Center
01:22PM 30.8253 -96.3969 90° East 491 565 20,900 -2,820 Descending Houston Center
01:23PM 30.8022 -96.2506 100° East 462 532 18,000 -2,520 Descending Houston Center
01:24PM 30.7203 -96.1456 132° Southeast 434 499 15,700 -2,580 Descending Houston Center
01:25PM 30.6286 -96.0489 138° Southeast 390 449 12,800 -2,700 Descending Houston Center
01:26PM 30.5711 -95.9875 137° Southeast 387 445 11,100 -2,100 Descending Houston Center
01:26PM 30.5514 -95.9664 137° Southeast 388 447 10,600 -1,080 Descending Houston Center
01:27PM 30.4883 -95.9050 140° Southeast 318 366 9,900 -600 Descending Houston Center
01:27PM 30.4833 -95.8931 116° Southeast 336 387 10,000 60 Climbing Houston Center
01:28PM 30.4278 -95.8369 139° Southeast 299 344 10,000  Level Houston Center
01:28PM 30.4211 -95.8294 136° Southeast 301 346 10,000 -1,500 Level Houston Center
01:28PM 30.3794 -95.7892 140° Southeast 285 328 8,800 -1,560 Descending Houston Center
01:29PM 30.3558 -95.7856 172° South 296 341 8,400 -840 Descending Houston Center
01:30PM 30.3039 -95.7883 183° South 266 306 8,000 -540 Descending Houston Center
01:30PM 30.2692 -95.7858 176° South 262 302 7,900  Descending Houston Center
01:31PM 30.2211 -95.7786 173° South 271 312 8,000 60 Climbing Houston Center
01:31PM 30.1953 -95.7733 170° South 268 308 8,000 -720 Level Houston Center
01:32PM 30.1528 -95.7408 147° Southeast 272 313 7,300 -1,260 Descending Houston Center
01:32PM 30.1400 -95.7192 124° Southeast 268 308 6,700 -1,800 Descending Houston Center
01:33PM 30.1075 -95.6786 133° Southeast 261 300 5,500 -1,680 Descending Houston Center
01:33PM 30.0931 -95.6575 128° Southeast 257 296 5,000 -1,620 Descending Houston Center
01:34PM 30.0575 -95.6144 134° Southeast 256 295 3,900 -1,500 Descending Houston Center
01:34PM 30.0450 -95.5975 130° Southeast 256 295 3,500 -900 Descending Houston Center
01:35PM 30.0131 -95.5617 136° Southeast 212 244 3,000 -540 Descending Houston Center
01:35PM 30.0028 -95.5472 129° Southeast 237 273 3,000 -360 Level Houston Center
01:36PM 29.9911 -95.5042 107° East 168 193 2,600 -780 Descending Houston Center
01:36PM 29.9933 -95.4819 83° East 197 227 2,200 -1,080 Descending Houston Center